Time;durP1;ratioP1;P1;durP2;ratioP2;P2;SDS_P1;SDS_P2;PMS_P1;PMS_P2;Temp;Humidity;BMP_temperature;BMP_pressure;BME280_temperature;BME280_humidity;BME280_pressure;Samples;Min_cycle;Max_cycle;Signal;HPM_P1;HPM_P2
2021/12/07 00:02:10;;;;;;;4.78;3.70;;;2.00;99.90;;;;;;6278414;22;20019;-84
2021/12/07 00:04:37;;;;;;;3.90;3.25;;;5.10;99.90;;;;;;6278524;22;20057;-84
2021/12/07 00:07:04;;;;;;;3.78;2.83;;;6.90;99.90;;;;;;6278561;22;20137;-84
2021/12/07 00:09:30;;;;;;;3.50;3.03;;;5.40;99.90;;;;;;6253318;22;20018;-84
2021/12/07 00:11:56;;;;;;;5.40;3.42;;;4.30;99.90;;;;;;6279166;22;20106;-84
2021/12/07 00:14:24;;;;;;;3.55;3.10;;;6.90;99.90;;;;;;6253610;22;20480;-84
2021/12/07 00:16:53;;;;;;;5.30;3.17;;;5.50;99.90;;;;;;6278950;22;20011;-84
2021/12/07 00:19:19;;;;;;;4.38;3.67;;;3.60;99.90;;;;;;6279017;22;20022;-84
2021/12/07 00:21:45;;;;;;;4.35;3.42;;;7.10;99.90;;;;;;6278574;22;20015;-85
2021/12/07 00:24:12;;;;;;;4.05;3.47;;;4.30;99.90;;;;;;6253913;22;20015;-84
2021/12/07 00:26:40;;;;;;;4.88;4.10;;;6.60;99.90;;;;;;6278725;22;20054;-85
2021/12/07 00:29:07;;;;;;;4.10;3.38;;;8.50;99.90;;;;;;6278833;22;20012;-84
2021/12/07 00:31:40;;;;;;;5.28;3.58;;;6.20;99.90;;;;;;6277511;22;20471;-85
2021/12/07 00:36:36;;;;;;;5.05;3.47;;;3.70;99.90;;;;;;6278679;22;20062;-85
2021/12/07 00:39:05;;;;;;;4.20;3.60;;;5.80;99.90;;;;;;6278577;22;20069;-84
2021/12/07 00:41:31;;;;;;;5.53;3.70;;;3.90;99.90;;;;;;6252156;22;20021;-84
2021/12/07 00:44:02;;;;;;;5.75;4.72;;;4.70;99.90;;;;;;6228430;22;20474;-84
2021/12/07 00:46:28;;;;;;;10.27;7.68;;;6.40;99.90;;;;;;6252942;22;20025;-84
2021/12/07 00:48:54;;;;;;;6.35;4.68;;;3.70;99.90;;;;;;6252600;22;20333;-83
2021/12/07 00:51:20;;;;;;;8.95;6.72;;;7.80;99.90;;;;;;6253403;22;20017;-84
2021/12/07 00:53:46;;;;;;;8.68;6.38;;;5.80;99.90;;;;;;6252760;22;20400;-83
2021/12/07 00:56:12;;;;;;;13.65;9.77;;;9.00;99.90;;;;;;6252622;22;20018;-84
2021/12/07 00:58:37;;;;;;;10.43;7.88;;;7.10;99.90;;;;;;6253179;22;20017;-84
2021/12/07 01:01:08;;;;;;;13.80;9.20;;;6.10;99.90;;;;;;6252995;22;20014;-84
2021/12/07 01:03:35;;;;;;;14.43;10.13;;;4.40;99.90;;;;;;6253723;22;20018;-85
2021/12/07 01:06:14;;;;;;;7.90;5.55;;;2.90;99.90;;;;;;6254644;22;20067;-84
2021/12/07 01:25:05;;;;;;;13.90;8.18;;;7.00;99.90;;;;;;6254731;22;20402;-84
2021/12/07 01:27:31;;;;;;;10.88;8.35;;;2.60;99.90;;;;;;6254650;22;20025;-84
2021/12/07 01:30:07;;;;;;;12.43;8.63;;;3.20;99.90;;;;;;6254248;22;20343;-84
2021/12/07 01:32:50;;;;;;;7.90;5.18;;;5.90;99.90;;;;;;6254643;22;20017;-84
2021/12/07 01:38:03;;;;;;;17.08;10.00;;;5.90;99.90;;;;;;6254483;22;20408;-83
2021/12/07 01:43:30;;;;;;;23.45;13.77;;;7.30;99.90;;;;;;6248719;22;20031;-84
2021/12/07 01:51:34;;;;;;;29.77;15.02;;;4.20;99.90;;;;;;6249119;22;20022;-84
2021/12/07 01:59:35;;;;;;;27.95;15.18;;;9.10;99.90;;;;;;6249091;22;20080;-84
2021/12/07 02:02:04;;;;;;;25.65;13.75;;;3.20;99.90;;;;;;6248931;22;20015;-84
2021/12/07 02:04:31;;;;;;;15.10;7.95;;;7.40;99.90;;;;;;6249320;22;20046;-84
2021/12/07 02:06:56;;;;;;;14.82;10.15;;;6.80;99.90;;;;;;6249193;22;20024;-84
2021/12/07 02:09:22;;;;;;;14.90;10.02;;;4.20;99.90;;;;;;6249513;22;20019;-84
2021/12/07 02:11:51;;;;;;;21.92;13.65;;;4.70;99.90;;;;;;6248849;22;20047;-84
2021/12/07 02:14:18;;;;;;;24.55;14.10;;;5.70;99.90;;;;;;6249155;22;20012;-85
2021/12/07 02:16:47;;;;;;;25.52;14.82;;;5.40;99.90;;;;;;6248973;22;20011;-84
2021/12/07 02:19:13;;;;;;;25.52;14.68;;;5.90;99.90;;;;;;6248771;22;20094;-84
2021/12/07 02:21:39;;;;;;;194.35;20.73;;;4.40;99.90;;;;;;6249027;22;20012;-86
2021/12/07 02:24:05;;;;;;;24.15;14.50;;;10.00;99.90;;;;;;6248750;22;20020;-84
2021/12/07 02:26:33;;;;;;;25.77;15.02;;;8.70;99.90;;;;;;6249023;22;20012;-84
2021/12/07 02:29:00;;;;;;;18.98;12.27;;;9.40;99.90;;;;;;6248524;22;20086;-84
2021/12/07 02:31:26;;;;;;;21.27;13.00;;;4.80;99.90;;;;;;6248925;22;20015;-84
2021/12/07 02:33:54;;;;;;;25.60;14.00;;;9.40;99.90;;;;;;6248682;22;20047;-83
2021/12/07 02:36:20;;;;;;;23.63;14.13;;;9.20;99.90;;;;;;6249129;22;20023;-84
2021/12/07 02:38:45;;;;;;;27.73;14.15;;;7.70;99.90;;;;;;6248542;22;20012;-85
2021/12/07 02:41:11;;;;;;;33.45;15.45;;;10.10;99.90;;;;;;6256128;22;20065;-84
2021/12/07 02:43:37;;;;;;;26.02;14.05;;;5.70;99.90;;;;;;6279114;22;20349;-84
2021/12/07 02:46:03;;;;;;;23.25;11.88;;;7.10;99.90;;;;;;6279397;22;20007;-84
2021/12/07 02:48:29;;;;;;;21.27;10.90;;;5.20;99.90;;;;;;6277861;22;20026;-84
2021/12/07 02:50:55;;;;;;;16.02;9.18;;;9.90;99.90;;;;;;6252937;22;20042;-84
2021/12/07 02:53:25;;;;;;;23.15;9.57;;;7.80;99.90;;;;;;6279683;22;20026;-84
2021/12/07 02:55:51;;;;;;;21.13;8.05;;;3.00;99.90;;;;;;6278519;22;20015;-84
2021/12/07 02:58:18;;;;;;;24.10;6.05;;;4.30;99.90;;;;;;6279404;22;20450;-84
2021/12/07 03:00:52;;;;;;;15.10;3.75;;;5.70;99.90;;;;;;6278457;22;20105;-84
2021/12/07 03:03:18;;;;;;;11.13;3.58;;;6.20;99.90;;;;;;6278735;22;20068;-84
2021/12/07 03:05:56;;;;;;;12.15;2.95;;;7.50;99.90;;;;;;6278408;22;20090;-84
2021/12/07 03:27:53;;;;;;;8.25;1.52;;;10.50;99.90;;;;;;6278822;22;20054;-83
2021/12/07 03:30:20;;;;;;;8.90;2.08;;;10.50;99.90;;;;;;6278957;22;20449;-83
2021/12/07 03:32:45;;;;;;;17.42;3.33;;;10.50;99.90;;;;;;6278268;22;20016;-83
2021/12/07 03:35:12;;;;;;;9.80;1.63;;;7.40;99.90;;;;;;6279255;22;20016;-83
2021/12/07 03:37:37;;;;;;;10.93;1.50;;;8.80;99.90;;;;;;6278855;22;20012;-84
2021/12/07 03:40:04;;;;;;;2.90;1.13;;;4.70;99.90;;;;;;6277541;22;20026;-83
2021/12/07 03:42:30;;;;;;;3.38;1.23;;;4.90;99.90;;;;;;6279056;22;20022;-83
2021/12/07 03:44:56;;;;;;;10.85;1.42;;;6.20;99.90;;;;;;6278486;22;20019;-83
2021/12/07 03:47:22;;;;;;;11.68;1.70;;;8.60;99.90;;;;;;6253431;22;20345;-84
2021/12/07 03:49:47;;;;;;;9.43;1.40;;;7.60;99.90;;;;;;6278494;22;20060;-83
2021/12/07 03:52:13;;;;;;;7.53;2.17;;;8.70;99.90;;;;;;6277766;22;20007;-83
2021/12/07 03:54:39;;;;;;;9.10;1.70;;;9.90;99.90;;;;;;6253044;22;20073;-84
2021/12/07 03:57:05;;;;;;;8.50;2.53;;;9.10;99.90;;;;;;6276887;22;20050;-84
2021/12/07 03:59:30;;;;;;;12.55;1.70;;;7.70;99.90;;;;;;6278095;22;20019;-83
2021/12/07 04:01:56;;;;;;;8.82;1.67;;;8.70;99.90;;;;;;6253259;22;20396;-83
2021/12/07 04:04:22;;;;;;;10.73;1.63;;;5.90;99.90;;;;;;6278584;22;20054;-83
2021/12/07 04:06:48;;;;;;;5.18;1.73;;;5.60;99.90;;;;;;6278414;22;20480;-83
2021/12/07 04:09:13;;;;;;;7.60;2.25;;;7.30;99.90;;;;;;6278684;22;20153;-83
2021/12/07 04:11:39;;;;;;;9.00;1.83;;;5.80;99.90;;;;;;6277590;22;20034;-83
2021/12/07 04:14:06;;;;;;;16.40;1.77;;;8.40;99.90;;;;;;6278521;22;20090;-83
2021/12/07 04:16:33;;;;;;;9.80;2.30;;;7.00;99.90;;;;;;6277731;22;20019;-83
2021/12/07 04:18:59;;;;;;;6.03;1.70;;;8.20;99.90;;;;;;6278570;22;20015;-83
2021/12/07 04:21:25;;;;;;;16.10;2.20;;;5.10;99.90;;;;;;6278622;22;20016;-83
2021/12/07 04:23:51;;;;;;;19.13;2.33;;;8.00;99.90;;;;;;6252786;22;20322;-83
2021/12/07 04:26:17;;;;;;;10.05;1.80;;;7.70;99.90;;;;;;6278691;22;20011;-83
2021/12/07 04:28:43;;;;;;;11.38;2.42;;;7.90;99.90;;;;;;6252814;22;20015;-86
2021/12/07 04:31:10;;;;;;;15.68;1.98;;;6.90;99.90;;;;;;6277546;22;20045;-83
2021/12/07 04:33:36;;;;;;;11.50;2.33;;;6.50;99.90;;;;;;6278122;22;20012;-83
2021/12/07 04:36:04;;;;;;;13.82;2.35;;;8.20;99.90;;;;;;6278501;22;20003;-83
2021/12/07 04:38:30;;;;;;;8.75;1.65;;;5.40;99.90;;;;;;6279755;22;20023;-84
2021/12/07 04:40:55;;;;;;;13.70;2.20;;;6.10;99.90;;;;;;6280232;22;20022;-83
2021/12/07 04:43:21;;;;;;;7.78;2.58;;;6.80;99.90;;;;;;6253962;22;20361;-83
2021/12/07 04:46:00;;;;;;;10.68;2.17;;;6.70;99.90;;;;;;6279496;22;20095;-83
2021/12/07 04:59:26;;;;;;;16.23;2.15;;;5.90;99.90;;;;;;6280122;22;20080;-83
2021/12/07 05:01:52;;;;;;;19.27;2.95;;;6.90;99.90;;;;;;6280247;22;20102;-83
2021/12/07 05:04:23;;;;;;;15.70;2.30;;;9.80;99.90;;;;;;6280181;22;20012;-83
2021/12/07 05:06:59;;;;;;;20.38;2.20;;;9.10;99.90;;;;;;6278477;22;20094;-83
2021/12/07 05:10:05;;;;;;;22.10;2.45;;;4.80;99.90;;;;;;6279303;22;20015;-83
2021/12/07 05:12:29;;;;;;;14.60;2.00;;;4.40;99.90;;;;;;6280048;22;20021;-83
2021/12/07 05:15:03;;;;;;;14.25;2.17;;;8.20;99.90;;;;;;6254390;22;20345;-83
2021/12/07 05:26:11;;;;;;;16.02;2.20;;;6.40;99.90;;;;;;6279667;22;20049;-84
2021/12/07 05:39:27;;;;;;;16.10;2.20;;;7.60;99.90;;;;;;6280012;22;20417;-83
2021/12/07 05:41:53;;;;;;;12.50;2.13;;;7.90;99.90;;;;;;6252325;22;20100;-83
2021/12/07 05:44:19;;;;;;;14.15;2.28;;;3.70;99.90;;;;;;6228419;23;20659;-83
2021/12/07 05:46:45;;;;;;;14.13;1.90;;;8.30;99.90;;;;;;6253800;22;20017;-84
2021/12/07 05:49:11;;;;;;;9.73;1.90;;;6.30;99.90;;;;;;6253050;22;20029;-83
2021/12/07 05:51:37;;;;;;;21.48;2.30;;;8.90;99.90;;;;;;6254031;22;20014;-83
2021/12/07 05:54:02;;;;;;;14.05;2.17;;;7.10;99.90;;;;;;6253373;22;20025;-83
2021/12/07 05:56:28;;;;;;;13.18;2.22;;;5.50;99.90;;;;;;6253791;22;20057;-83
2021/12/07 05:58:54;;;;;;;15.98;1.60;;;5.60;99.90;;;;;;6228276;22;20024;-83
2021/12/07 06:01:19;;;;;;;13.18;1.80;;;5.30;99.90;;;;;;6228128;23;20010;-83
2021/12/07 06:03:45;;;;;;;11.95;1.92;;;8.30;99.90;;;;;;6253416;22;20017;-83
2021/12/07 06:06:11;;;;;;;7.18;1.38;;;5.70;99.90;;;;;;6253799;22;20013;-83
2021/12/07 06:08:37;;;;;;;14.10;2.25;;;8.60;99.90;;;;;;6253396;22;20013;-83
2021/12/07 06:11:02;;;;;;;11.35;1.90;;;10.70;99.90;;;;;;6253164;22;20021;-83
2021/12/07 06:13:28;;;;;;;10.23;1.98;;;4.50;99.90;;;;;;6227571;23;20021;-84
2021/12/07 06:15:54;;;;;;;9.90;1.80;;;4.40;99.90;;;;;;6252153;22;20024;-84
2021/12/07 06:18:20;;;;;;;8.98;1.85;;;9.00;99.90;;;;;;6253118;22;20463;-83
2021/12/07 06:20:46;;;;;;;9.40;1.67;;;5.50;99.90;;;;;;6253528;22;20052;-84
2021/12/07 06:23:14;;;;;;;9.75;1.70;;;7.40;99.90;;;;;;6253418;22;20053;-83
2021/12/07 06:25:40;;;;;;;7.20;1.70;;;10.70;99.90;;;;;;6253163;22;20022;-84
2021/12/07 06:28:06;;;;;;;13.63;2.67;;;5.60;99.90;;;;;;6253218;22;20017;-83
2021/12/07 06:30:32;;;;;;;13.25;2.30;;;8.70;99.90;;;;;;6253918;22;20056;-83
2021/12/07 06:32:58;;;;;;;20.70;2.60;;;5.20;99.90;;;;;;6253308;22;20063;-83
2021/12/07 06:35:23;;;;;;;22.83;2.75;;;9.80;99.90;;;;;;6227798;23;20014;-83
2021/12/07 06:37:49;;;;;;;21.73;2.70;;;8.20;99.90;;;;;;6253470;22;20460;-83
2021/12/07 06:40:15;;;;;;;24.27;3.53;;;8.20;99.90;;;;;;6253154;22;20017;-83
2021/12/07 06:42:41;;;;;;;17.77;3.10;;;8.50;99.90;;;;;;6253047;22;20444;-83
2021/12/07 06:45:10;;;;;;;19.75;2.90;;;7.40;99.90;;;;;;6227781;23;20025;-83
2021/12/07 06:47:36;;;;;;;20.08;3.10;;;5.70;99.90;;;;;;6253551;22;20100;-83
2021/12/07 06:50:06;;;;;;;30.60;3.10;;;8.30;99.90;;;;;;6227567;23;20090;-83
2021/12/07 06:52:32;;;;;;;21.20;2.90;;;7.80;99.90;;;;;;6253309;22;20025;-83
2021/12/07 06:54:58;;;;;;;19.67;2.55;;;8.40;99.90;;;;;;6253413;22;20025;-84
2021/12/07 06:57:25;;;;;;;36.83;4.15;;;6.10;99.90;;;;;;6253469;22;20321;-86
2021/12/07 06:59:51;;;;;;;12.52;2.45;;;8.00;99.90;;;;;;6252733;22;20021;-84
2021/12/07 07:02:17;;;;;;;29.40;2.90;;;5.10;99.90;;;;;;6252953;22;20014;-84
2021/12/07 07:04:44;;;;;;;14.77;2.65;;;7.70;99.90;;;;;;6253456;22;20082;-83
2021/12/07 07:07:11;;;;;;;14.65;2.50;;;5.20;99.90;;;;;;6253417;22;20025;-83
2021/12/07 07:09:37;;;;;;;27.45;4.57;;;7.50;99.90;;;;;;6228086;23;20082;-83
2021/12/07 07:12:04;;;;;;;21.05;2.67;;;8.60;99.90;;;;;;6227798;22;20096;-83
2021/12/07 07:14:29;;;;;;;12.75;2.42;;;4.30;99.90;;;;;;6252861;22;20013;-83
2021/12/07 07:16:55;;;;;;;17.40;2.47;;;8.50;99.90;;;;;;6253304;22;20386;-83
2021/12/07 07:19:24;;;;;;;14.50;2.35;;;10.40;99.90;;;;;;6253295;22;20550;-83
2021/12/07 07:21:50;;;;;;;17.48;2.40;;;8.60;99.90;;;;;;6252903;22;20021;-83
2021/12/07 07:24:16;;;;;;;13.45;2.47;;;4.40;99.90;;;;;;6226086;23;20093;-84
2021/12/07 07:26:42;;;;;;;18.65;2.47;;;10.90;99.90;;;;;;6253001;22;20075;-83
2021/12/07 07:29:10;;;;;;;19.00;3.13;;;6.40;99.90;;;;;;6253193;22;20024;-83
2021/12/07 07:31:40;;;;;;;25.05;2.97;;;9.00;99.90;;;;;;6253574;22;20093;-82
2021/12/07 07:34:06;;;;;;;22.63;2.50;;;4.50;99.90;;;;;;6253495;22;20018;-83
2021/12/07 07:36:31;;;;;;;19.08;2.47;;;7.40;99.90;;;;;;6253293;22;20171;-85
2021/12/07 07:38:57;;;;;;;13.82;2.17;;;6.70;99.90;;;;;;6252848;22;20148;-85
2021/12/07 07:41:24;;;;;;;15.45;2.33;;;9.10;99.90;;;;;;6252119;22;20476;-84
2021/12/07 07:43:49;;;;;;;12.27;2.58;;;7.70;99.90;;;;;;6252195;22;20015;-84
2021/12/07 07:46:15;;;;;;;16.20;2.50;;;7.40;99.90;;;;;;6279347;22;20034;-85
2021/12/07 07:48:41;;;;;;;12.25;2.33;;;5.70;99.90;;;;;;6279773;22;20015;-83
2021/12/07 07:51:09;;;;;;;11.68;2.15;;;7.60;99.90;;;;;;6279611;22;20484;-84
2021/12/07 07:53:34;;;;;;;10.70;2.05;;;9.70;99.90;;;;;;6277376;22;20028;-83
2021/12/07 07:56:00;;;;;;;17.17;2.25;;;6.60;99.90;;;;;;6279022;22;20012;-85
2021/12/07 07:58:27;;;;;;;9.77;2.10;;;7.50;99.90;;;;;;6279023;22;20015;-87
2021/12/07 08:00:53;;;;;;;13.30;2.40;;;5.80;99.90;;;;;;6277964;22;20022;-87
2021/12/07 08:03:19;;;;;;;24.70;2.30;;;6.30;99.90;;;;;;6278411;22;20362;-84
2021/12/07 08:05:46;;;;;;;13.75;2.20;;;7.90;99.90;;;;;;6253571;22;20034;-82
2021/12/07 08:08:12;;;;;;;17.52;2.40;;;5.90;99.90;;;;;;6278308;22;20023;-86
2021/12/07 08:10:38;;;;;;;16.98;3.03;;;7.70;99.90;;;;;;6279127;22;20094;-86
2021/12/07 08:13:06;;;;;;;10.82;2.35;;;7.80;99.90;;;;;;6280882;22;20330;-85
2021/12/07 08:15:38;;;;;;;12.77;2.10;;;7.60;99.90;;;;;;6280528;22;20022;-86
2021/12/07 08:18:05;;;;;;;9.48;2.05;;;7.00;99.90;;;;;;6280162;22;20021;-84
2021/12/07 08:20:32;;;;;;;19.85;2.33;;;7.30;99.90;;;;;;6280562;22;20085;-83
2021/12/07 08:22:58;;;;;;;11.48;2.13;;;8.20;99.90;;;;;;6255587;22;20011;-85
2021/12/07 08:25:25;;;;;;;11.95;2.50;;;6.10;99.90;;;;;;6281288;22;20532;-85
2021/12/07 08:27:51;;;;;;;14.48;3.03;;;6.20;99.90;;;;;;6280147;22;20050;-84
2021/12/07 08:30:17;;;;;;;22.42;2.67;;;8.00;99.90;;;;;;6255072;22;20027;-85
2021/12/07 08:32:47;;;;;;;13.55;2.10;;;7.20;99.90;;;;;;6278729;22;20016;-82
2021/12/07 08:35:16;;;;;;;13.60;2.42;;;8.20;99.90;;;;;;6280352;22;20104;-83
2021/12/07 08:37:46;;;;;;;11.57;2.10;;;6.60;99.90;;;;;;6280633;22;20061;-83
2021/12/07 08:40:15;;;;;;;21.58;2.42;;;7.50;99.90;;;;;;6279628;22;20029;-83
2021/12/07 08:42:41;;;;;;;237.02;11.60;;;8.00;99.90;;;;;;6252746;22;20018;-82
2021/12/07 08:45:07;;;;;;;15.63;2.42;;;6.10;99.90;;;;;;6229561;23;20090;-82
2021/12/07 08:47:34;;;;;;;13.02;2.10;;;6.30;99.90;;;;;;6255536;22;20014;-82
2021/12/07 08:50:01;;;;;;;9.07;2.10;;;6.00;99.90;;;;;;6281614;22;20101;-82
2021/12/07 08:52:27;;;;;;;14.30;2.20;;;6.10;99.90;;;;;;6254116;22;20071;-82
2021/12/07 09:00:08;;;;;;;14.32;2.13;;;9.10;99.90;;;;;;6253234;22;20359;-87
2021/12/07 09:02:34;;;;;;;13.45;2.10;;;8.10;99.90;;;;;;6254398;22;20401;-82
2021/12/07 09:05:00;;;;;;;14.63;2.63;;;8.10;99.90;;;;;;6254607;22;20355;-83
2021/12/07 09:07:26;;;;;;;11.02;2.40;;;7.50;99.90;;;;;;6255826;22;20100;-83
2021/12/07 09:18:32;;;;;;;17.27;2.75;;;6.80;99.90;;;;;;6254163;22;20025;-85
2021/12/07 09:21:03;;;;;;;14.13;2.65;;;5.80;99.90;;;;;;6255195;22;20021;-87
2021/12/07 09:23:29;;;;;;;16.45;2.70;;;8.40;99.90;;;;;;6254962;22;20105;-86
2021/12/07 09:25:55;;;;;;;11.18;2.60;;;7.90;99.90;;;;;;6254782;22;20049;-85
2021/12/07 09:28:21;;;;;;;12.90;2.50;;;6.90;99.90;;;;;;6254969;22;20419;-86
2021/12/07 09:30:51;;;;;;;25.02;3.60;;;7.50;99.90;;;;;;6229696;23;20033;-84
2021/12/07 09:33:19;;;;;;;12.80;2.60;;;9.00;99.90;;;;;;6229524;23;20021;-83
2021/12/07 09:35:48;;;;;;;10.40;2.72;;;6.80;99.90;;;;;;6255253;22;20075;-84
2021/12/07 09:38:14;;;;;;;8.20;2.00;;;9.30;99.90;;;;;;6254808;22;20053;-84
2021/12/07 09:40:42;;;;;;;11.68;2.95;;;8.20;99.90;;;;;;6228448;23;20352;-83
2021/12/07 09:43:09;;;;;;;20.23;3.53;;;9.30;99.90;;;;;;6254253;22;20014;-85
2021/12/07 09:45:36;;;;;;;22.42;3.90;;;8.20;99.90;;;;;;6255046;22;20022;-92
2021/12/07 09:48:04;;;;;;;10.25;2.53;;;8.70;99.90;;;;;;6254673;22;20104;-86
2021/12/07 09:50:34;;;;;;;20.92;2.85;;;8.60;99.90;;;;;;6254798;22;20444;-83
2021/12/07 09:53:01;;;;;;;13.98;3.45;;;8.90;99.90;;;;;;6255091;22;20010;-84
2021/12/07 09:55:29;;;;;;;11.40;2.25;;;9.30;99.90;;;;;;6229278;23;20387;-83
2021/12/07 09:57:56;;;;;;;12.98;2.75;;;7.90;99.90;;;;;;6254983;22;20339;-85
2021/12/07 10:00:25;;;;;;;11.48;2.75;;;7.70;99.90;;;;;;6254604;22;20053;-86
2021/12/07 10:02:52;;;;;;;15.43;2.90;;;8.10;99.90;;;;;;6254070;22;20055;-83
2021/12/07 10:05:20;;;;;;;9.68;2.55;;;8.10;99.90;;;;;;6254868;22;20018;-85
2021/12/07 10:07:47;;;;;;;8.30;1.90;;;8.40;99.90;;;;;;6254642;22;20014;-90
2021/12/07 10:10:26;;;;;;;14.70;2.58;;;9.20;99.90;;;;;;6255079;22;20317;-85
2021/12/07 10:12:54;;;;;;;14.55;3.00;;;9.30;99.90;;;;;;6254917;22;20014;-88
2021/12/07 10:15:21;;;;;;;12.98;2.95;;;8.40;99.90;;;;;;6254823;22;20700;-88
2021/12/07 10:18:06;;;;;;;17.67;3.15;;;8.80;99.90;;;;;;6254824;22;20013;-87
2021/12/07 10:20:39;;;;;;;12.95;2.70;;;8.60;99.90;;;;;;6254545;22;20427;-86
2021/12/07 10:23:21;;;;;;;9.68;1.98;;;9.10;99.90;;;;;;6254365;22;20024;-86
2021/12/07 10:25:57;;;;;;;14.20;2.50;;;8.70;99.90;;;;;;6229269;23;20487;-87
2021/12/07 10:28:26;;;;;;;12.48;2.95;;;6.70;99.90;;;;;;6229475;22;20033;-87
2021/12/07 10:30:55;;;;;;;22.42;3.17;;;9.30;99.90;;;;;;6228996;23;20026;-86
2021/12/07 10:33:30;;;;;;;12.93;2.22;;;8.20;99.90;;;;;;6228934;23;20043;-86
2021/12/07 10:36:15;;;;;;;13.82;2.63;;;10.00;99.90;;;;;;6254516;22;20018;-85
2021/12/07 10:39:03;;;;;;;16.10;2.25;;;8.00;99.90;;;;;;6254625;22;20022;-86
2021/12/07 10:41:34;;;;;;;13.35;2.00;;;8.20;99.90;;;;;;6278098;22;20300;-86
2021/12/07 10:44:05;;;;;;;7.95;1.75;;;7.70;99.90;;;;;;6255066;22;20018;-87
2021/12/07 10:46:38;;;;;;;13.95;1.63;;;9.20;99.90;;;;;;6280639;22;20472;-84
2021/12/07 10:49:38;;;;;;;9.20;2.03;;;8.70;99.90;;;;;;6280274;22;20489;-85
2021/12/07 10:52:19;;;;;;;3.00;1.88;;;9.30;99.90;;;;;;6279377;22;20019;-86
2021/12/07 10:54:51;;;;;;;11.93;2.15;;;7.80;99.90;;;;;;6254530;22;20062;-84
2021/12/07 10:57:21;;;;;;;10.00;2.20;;;8.60;99.90;;;;;;6280344;22;20086;-86
2021/12/07 10:59:55;;;;;;;9.98;1.75;;;7.90;99.90;;;;;;6280267;22;20061;-85
2021/12/07 11:02:23;;;;;;;15.05;3.75;;;8.90;99.90;;;;;;6280117;22;20053;-85
2021/12/07 11:04:49;;;;;;;9.88;2.20;;;8.20;99.90;;;;;;6307834;22;20319;-85
2021/12/07 11:07:20;;;;;;;10.13;2.67;;;7.60;99.90;;;;;;6308040;22;20026;-86
2021/12/07 11:10:05;;;;;;;6.15;1.92;;;9.00;99.90;;;;;;6280262;22;20023;-86
2021/12/07 11:12:40;;;;;;;18.52;3.08;;;7.90;99.90;;;;;;6255006;22;20021;-85
2021/12/07 11:15:15;;;;;;;16.42;2.25;;;8.40;99.90;;;;;;6279544;22;20012;-84
2021/12/07 11:17:44;;;;;;;11.00;2.43;;;7.40;99.90;;;;;;6307478;22;20011;-85
2021/12/07 11:20:14;;;;;;;10.20;2.72;;;8.20;99.90;;;;;;6280150;22;20258;-85
2021/12/07 11:22:50;;;;;;;10.35;2.08;;;8.00;99.90;;;;;;6280169;22;20342;-84
2021/12/07 11:25:53;;;;;;;15.48;3.58;;;8.40;99.90;;;;;;6280082;22;20086;-87
2021/12/07 11:31:30;;;;;;;10.05;2.88;;;7.70;99.90;;;;;;6279774;22;20101;-84
2021/12/07 11:34:09;;;;;;;15.30;2.47;;;7.90;99.90;;;;;;6280060;22;20351;-85
2021/12/07 11:36:43;;;;;;;8.60;3.33;;;9.10;99.90;;;;;;6280173;22;20090;-84
2021/12/07 11:39:21;;;;;;;7.80;2.83;;;7.80;99.90;;;;;;6306686;22;20437;-85
2021/12/07 11:41:51;;;;;;;34.85;4.15;;;9.20;99.90;;;;;;6228448;22;20028;-84
2021/12/07 11:44:19;;;;;;;17.70;2.97;;;8.40;99.90;;;;;;6254074;22;20386;-86
2021/12/07 11:46:49;;;;;;;13.63;3.13;;;8.90;99.90;;;;;;6228410;22;20100;-86
2021/12/07 11:49:25;;;;;;;15.95;3.70;;;8.60;99.90;;;;;;6228184;23;20014;-87
2021/12/07 11:51:55;;;;;;;7.88;2.25;;;9.10;99.90;;;;;;6228519;23;20379;-86
2021/12/07 11:54:24;;;;;;;9.73;2.95;;;9.40;99.90;;;;;;6228731;22;20049;-84
2021/12/07 11:56:54;;;;;;;10.27;3.40;;;9.00;99.90;;;;;;6228664;22;20022;-85
2021/12/07 11:59:20;;;;;;;14.88;3.40;;;9.30;99.90;;;;;;6253104;22;20013;-87
2021/12/07 12:01:47;;;;;;;13.40;3.13;;;8.10;99.90;;;;;;6253585;22;20070;-83
2021/12/07 12:04:15;;;;;;;10.57;2.50;;;8.80;99.90;;;;;;6228031;23;20013;-84
2021/12/07 12:06:45;;;;;;;7.90;2.80;;;11.30;99.90;;;;;;6228304;23;20086;-84
2021/12/07 12:09:11;;;;;;;7.15;2.38;;;8.10;99.90;;;;;;6228546;23;20025;-84
2021/12/07 12:11:50;;;;;;;8.68;2.72;;;9.50;99.90;;;;;;6228228;23;20347;-84
2021/12/07 12:14:40;;;;;;;11.40;2.90;;;8.00;99.90;;;;;;6228196;23;20348;-84
2021/12/07 12:17:18;;;;;;;11.60;2.85;;;7.80;99.90;;;;;;6228682;22;20351;-84
2021/12/07 12:20:00;;;;;;;4.70;2.38;;;8.80;99.90;;;;;;6228452;23;20013;-84
2021/12/07 12:22:36;;;;;;;8.95;3.13;;;8.00;99.90;;;;;;6253581;22;20351;-83
2021/12/07 12:25:14;;;;;;;13.75;3.05;;;7.30;99.90;;;;;;6228230;23;20018;-85
2021/12/07 12:27:42;;;;;;;12.18;3.30;;;8.90;99.90;;;;;;6227913;23;20351;-83
2021/12/07 12:30:18;;;;;;;13.05;3.20;;;7.90;99.90;;;;;;6227900;23;20052;-83
2021/12/07 12:32:53;;;;;;;13.48;3.33;;;8.50;99.90;;;;;;6253443;22;20021;-83
2021/12/07 12:35:27;;;;;;;13.07;2.63;;;7.50;99.90;;;;;;6227619;23;20022;-83
2021/12/07 12:37:53;;;;;;;8.40;2.65;;;7.70;99.90;;;;;;6228326;22;20087;-83
2021/12/07 12:40:22;;;;;;;12.73;3.40;;;8.10;99.90;;;;;;6228311;23;20021;-84
2021/12/07 12:42:52;;;;;;;11.25;3.53;;;6.70;99.90;;;;;;6243209;22;20015;-84
2021/12/07 12:45:29;;;;;;;17.95;3.38;;;7.20;99.90;;;;;;6247956;22;20361;-83
2021/12/07 12:48:04;;;;;;;8.30;3.22;;;7.80;99.90;;;;;;6223535;22;20086;-81
2021/12/07 12:50:33;;;;;;;13.38;3.13;;;8.40;99.90;;;;;;6223393;22;20020;-83
2021/12/07 12:53:04;;;;;;;12.85;3.13;;;8.80;99.90;;;;;;6249376;22;20333;-83
2021/12/07 12:55:42;;;;;;;9.15;3.20;;;8.50;99.90;;;;;;6248792;22;20043;-83
2021/12/07 12:58:17;;;;;;;6.80;2.33;;;7.70;99.90;;;;;;6223709;22;20016;-83
2021/12/07 13:01:12;;;;;;;12.60;2.67;;;7.10;99.90;;;;;;6225299;22;20023;-85
2021/12/07 13:03:43;;;;;;;10.18;2.83;;;8.20;99.90;;;;;;6250764;22;20019;-84
2021/12/07 13:06:13;;;;;;;18.20;3.50;;;7.20;99.90;;;;;;6250825;22;20015;-83
2021/12/07 13:08:59;;;;;;;13.25;3.28;;;8.10;99.90;;;;;;6248432;22;20019;-83
2021/12/07 13:11:35;;;;;;;13.38;2.95;;;8.50;99.90;;;;;;6249446;22;20070;-83
2021/12/07 13:14:08;;;;;;;13.30;2.50;;;8.40;99.90;;;;;;6225208;22;20022;-83
2021/12/07 13:16:35;;;;;;;10.73;2.75;;;7.40;99.90;;;;;;6250448;22;20323;-83
2021/12/07 13:19:05;;;;;;;12.77;3.03;;;7.60;99.90;;;;;;6249611;22;20113;-83
2021/12/07 13:21:36;;;;;;;19.50;4.22;;;8.40;99.90;;;;;;6250102;22;20029;-83
2021/12/07 13:24:07;;;;;;;5.85;2.90;;;7.10;99.90;;;;;;6249949;22;20023;-84
2021/12/07 13:26:35;;;;;;;8.52;3.15;;;7.70;99.90;;;;;;6224821;22;20020;-83
2021/12/07 13:29:07;;;;;;;18.70;4.15;;;8.70;99.90;;;;;;6250699;22;20346;-83
2021/12/07 13:31:52;;;;;;;10.82;2.90;;;7.50;99.90;;;;;;6225078;22;20047;-82
2021/12/07 13:34:29;;;;;;;16.83;3.85;;;7.70;99.90;;;;;;6224683;22;20020;-83
2021/12/07 13:36:59;;;;;;;16.67;3.03;;;6.10;99.90;;;;;;6249076;22;20023;-83
2021/12/07 13:39:24;;;;;;;13.85;3.20;;;8.00;99.90;;;;;;6224369;22;20012;-83
2021/12/07 13:42:02;;;;;;;15.93;3.17;;;8.20;99.90;;;;;;6224920;22;20046;-84
2021/12/07 13:44:32;;;;;;;16.73;3.30;;;8.00;99.90;;;;;;6227857;22;20024;-85
2021/12/07 13:47:02;;;;;;;15.20;3.10;;;6.00;99.90;;;;;;6229439;22;20477;-83
2021/12/07 13:49:33;;;;;;;8.95;3.30;;;7.40;99.90;;;;;;6229620;23;20017;-83
2021/12/07 13:52:03;;;;;;;10.50;2.92;;;8.60;99.90;;;;;;6229204;23;20009;-86
2021/12/07 13:54:29;;;;;;;16.77;3.80;;;8.40;99.90;;;;;;6229342;23;20026;-83
2021/12/07 13:56:58;;;;;;;10.15;2.67;;;7.10;99.90;;;;;;6229468;23;20470;-83
2021/12/07 13:59:26;;;;;;;18.48;3.17;;;7.30;99.90;;;;;;6254791;22;20020;-84
2021/12/07 14:01:55;;;;;;;19.00;3.75;;;9.20;99.90;;;;;;6229203;23;20100;-83
2021/12/07 14:04:26;;;;;;;10.50;3.10;;;8.00;99.90;;;;;;6228990;23;20024;-85
2021/12/07 14:06:53;;;;;;;12.00;3.17;;;8.00;99.90;;;;;;6254653;22;20410;-84
2021/12/07 14:09:21;;;;;;;14.30;4.30;;;7.80;99.90;;;;;;6229077;23;20072;-86
2021/12/07 14:11:53;;;;;;;18.00;4.13;;;6.80;99.90;;;;;;6229151;23;20013;-84
2021/12/07 14:14:20;;;;;;;10.88;2.70;;;6.90;99.90;;;;;;6254579;22;20017;-83
2021/12/07 14:16:46;;;;;;;10.20;2.75;;;7.60;99.90;;;;;;6228133;23;20456;-85
2021/12/07 14:19:12;;;;;;;13.35;3.88;;;6.90;99.90;;;;;;6254064;22;20021;-83
2021/12/07 14:21:47;;;;;;;15.35;3.45;;;8.50;99.90;;;;;;6254510;22;20024;-86
2021/12/07 14:24:20;;;;;;;11.98;2.83;;;8.00;99.90;;;;;;6229266;23;20014;-85
2021/12/07 14:26:48;;;;;;;17.55;3.88;;;5.70;99.90;;;;;;6228717;23;20052;-84
2021/12/07 14:29:18;;;;;;;12.25;3.42;;;6.40;99.90;;;;;;6228971;22;20512;-85
2021/12/07 14:31:47;;;;;;;10.90;3.00;;;7.70;99.90;;;;;;6228978;23;20346;-85
2021/12/07 14:34:19;;;;;;;15.52;2.72;;;7.90;99.90;;;;;;6254111;22;20025;-90
2021/12/07 14:36:52;;;;;;;10.18;2.53;;;9.70;99.90;;;;;;6229380;22;20021;-85
2021/12/07 14:39:29;;;;;;;11.15;2.90;;;7.70;99.90;;;;;;6229125;23;20014;-84
2021/12/07 14:41:59;;;;;;;11.18;3.50;;;8.00;99.90;;;;;;6254338;22;20021;-84